sensor_id;sensor_type;location;lat;lon;timestamp;P1;durP1;ratioP1;P2;durP2;ratioP2
12867;SDS011;33517;49.866;8.320;2022-10-16T00:02:25;0.47;;;0.47;;
12867;SDS011;33517;49.866;8.320;2022-10-16T00:05:17;0.95;;;0.90;;
12867;SDS011;33517;49.866;8.320;2022-10-16T00:08:10;0.40;;;0.40;;
12867;SDS011;33517;49.866;8.320;2022-10-16T00:11:03;0.90;;;0.90;;
12867;SDS011;33517;49.866;8.320;2022-10-16T00:13:58;0.75;;;0.60;;
12867;SDS011;33517;49.866;8.320;2022-10-16T00:16:51;0.43;;;0.43;;
12867;SDS011;33517;49.866;8.320;2022-10-16T00:19:44;0.17;;;0.17;;
12867;SDS011;33517;49.866;8.320;2022-10-16T00:22:36;0.43;;;0.40;;
12867;SDS011;33517;49.866;8.320;2022-10-16T00:25:28;0.55;;;0.55;;
12867;SDS011;33517;49.866;8.320;2022-10-16T00:28:22;0.85;;;0.55;;
12867;SDS011;33517;49.866;8.320;2022-10-16T00:31:15;0.57;;;0.57;;
12867;SDS011;33517;49.866;8.320;2022-10-16T00:34:08;0.52;;;0.52;;
12867;SDS011;33517;49.866;8.320;2022-10-16T00:37:02;0.30;;;0.30;;
12867;SDS011;33517;49.866;8.320;2022-10-16T00:39:54;0.20;;;0.20;;
12867;SDS011;33517;49.866;8.320;2022-10-16T00:42:46;0.32;;;0.32;;
12867;SDS011;33517;49.866;8.320;2022-10-16T00:45:38;0.00;;;0.00;;
12867;SDS011;33517;49.866;8.320;2022-10-16T00:48:29;0.55;;;0.52;;
12867;SDS011;33517;49.866;8.320;2022-10-16T00:51:23;0.63;;;0.40;;
12867;SDS011;33517;49.866;8.320;2022-10-16T00:54:19;1.15;;;1.05;;
12867;SDS011;33517;49.866;8.320;2022-10-16T00:57:13;0.65;;;0.65;;
12867;SDS011;33517;49.866;8.320;2022-10-16T01:00:07;0.28;;;0.28;;
12867;SDS011;33517;49.866;8.320;2022-10-16T01:03:02;0.68;;;0.55;;
12867;SDS011;33517;49.866;8.320;2022-10-16T01:05:58;0.40;;;0.40;;
12867;SDS011;33517;49.866;8.320;2022-10-16T01:09:03;0.40;;;0.40;;
12867;SDS011;33517;49.866;8.320;2022-10-16T01:12:05;0.38;;;0.38;;
12867;SDS011;33517;49.866;8.320;2022-10-16T01:15:04;1.23;;;1.08;;
12867;SDS011;33517;49.866;8.320;2022-10-16T01:18:03;0.43;;;0.43;;
12867;SDS011;33517;49.866;8.320;2022-10-16T01:21:01;0.30;;;0.30;;
12867;SDS011;33517;49.866;8.320;2022-10-16T01:23:57;0.35;;;0.35;;
12867;SDS011;33517;49.866;8.320;2022-10-16T01:27:04;0.28;;;0.28;;
12867;SDS011;33517;49.866;8.320;2022-10-16T01:30:00;0.45;;;0.45;;
12867;SDS011;33517;49.866;8.320;2022-10-16T01:32:58;0.17;;;0.17;;
12867;SDS011;33517;49.866;8.320;2022-10-16T01:35:55;0.40;;;0.40;;
12867;SDS011;33517;49.866;8.320;2022-10-16T01:38:52;0.50;;;0.50;;
12867;SDS011;33517;49.866;8.320;2022-10-16T01:41:48;0.30;;;0.30;;
12867;SDS011;33517;49.866;8.320;2022-10-16T01:44:46;0.40;;;0.40;;
12867;SDS011;33517;49.866;8.320;2022-10-16T01:47:40;0.50;;;0.50;;
12867;SDS011;33517;49.866;8.320;2022-10-16T01:50:35;0.40;;;0.40;;
12867;SDS011;33517;49.866;8.320;2022-10-16T01:53:31;5.85;;;0.68;;
12867;SDS011;33517;49.866;8.320;2022-10-16T01:56:24;0.40;;;0.40;;
12867;SDS011;33517;49.866;8.320;2022-10-16T01:59:18;0.20;;;0.20;;
12867;SDS011;33517;49.866;8.320;2022-10-16T02:02:14;0.35;;;0.35;;
12867;SDS011;33517;49.866;8.320;2022-10-16T02:05:10;0.20;;;0.20;;
12867;SDS011;33517;49.866;8.320;2022-10-16T02:08:07;0.20;;;0.20;;
12867;SDS011;33517;49.866;8.320;2022-10-16T02:10:59;6.35;;;0.68;;
12867;SDS011;33517;49.866;8.320;2022-10-16T02:13:53;0.38;;;0.38;;
12867;SDS011;33517;49.866;8.320;2022-10-16T02:16:50;0.63;;;0.63;;
12867;SDS011;33517;49.866;8.320;2022-10-16T02:19:43;0.20;;;0.20;;
12867;SDS011;33517;49.866;8.320;2022-10-16T02:22:38;1.00;;;0.57;;
12867;SDS011;33517;49.866;8.320;2022-10-16T02:25:33;0.15;;;0.15;;
12867;SDS011;33517;49.866;8.320;2022-10-16T02:28:30;0.47;;;0.47;;
12867;SDS011;33517;49.866;8.320;2022-10-16T02:31:29;0.40;;;0.40;;
12867;SDS011;33517;49.866;8.320;2022-10-16T02:34:25;0.10;;;0.10;;
12867;SDS011;33517;49.866;8.320;2022-10-16T02:37:20;0.57;;;0.57;;
12867;SDS011;33517;49.866;8.320;2022-10-16T02:40:12;0.17;;;0.10;;
12867;SDS011;33517;49.866;8.320;2022-10-16T02:43:04;0.17;;;0.17;;
12867;SDS011;33517;49.866;8.320;2022-10-16T02:45:56;0.20;;;0.20;;
12867;SDS011;33517;49.866;8.320;2022-10-16T02:48:48;0.20;;;0.20;;
12867;SDS011;33517;49.866;8.320;2022-10-16T02:51:40;0.63;;;0.40;;
12867;SDS011;33517;49.866;8.320;2022-10-16T02:54:33;0.38;;;0.20;;
12867;SDS011;33517;49.866;8.320;2022-10-16T02:57:25;8.45;;;0.63;;
12867;SDS011;33517;49.866;8.320;2022-10-16T03:00:17;0.20;;;0.20;;
12867;SDS011;33517;49.866;8.320;2022-10-16T03:03:09;0.20;;;0.20;;
12867;SDS011;33517;49.866;8.320;2022-10-16T03:06:01;0.30;;;0.30;;
12867;SDS011;33517;49.866;8.320;2022-10-16T03:08:53;0.85;;;0.55;;
12867;SDS011;33517;49.866;8.320;2022-10-16T03:11:46;0.10;;;0.10;;
12867;SDS011;33517;49.866;8.320;2022-10-16T03:14:38;0.20;;;0.20;;
12867;SDS011;33517;49.866;8.320;2022-10-16T03:17:31;0.57;;;0.40;;
12867;SDS011;33517;49.866;8.320;2022-10-16T03:20:23;0.25;;;0.25;;
12867;SDS011;33517;49.866;8.320;2022-10-16T03:23:15;0.03;;;0.03;;
12867;SDS011;33517;49.866;8.320;2022-10-16T03:26:07;0.20;;;0.20;;
12867;SDS011;33517;49.866;8.320;2022-10-16T03:29:00;0.63;;;0.28;;
12867;SDS011;33517;49.866;8.320;2022-10-16T03:31:53;0.10;;;0.10;;
12867;SDS011;33517;49.866;8.320;2022-10-16T03:34:44;0.50;;;0.40;;
12867;SDS011;33517;49.866;8.320;2022-10-16T03:37:36;0.35;;;0.35;;
12867;SDS011;33517;49.866;8.320;2022-10-16T03:40:28;1.00;;;0.57;;
12867;SDS011;33517;49.866;8.320;2022-10-16T03:43:22;0.15;;;0.15;;
12867;SDS011;33517;49.866;8.320;2022-10-16T03:46:15;0.10;;;0.10;;
12867;SDS011;33517;49.866;8.320;2022-10-16T03:49:07;0.15;;;0.15;;
12867;SDS011;33517;49.866;8.320;2022-10-16T03:51:59;0.40;;;0.40;;
12867;SDS011;33517;49.866;8.320;2022-10-16T03:54:51;0.15;;;0.15;;
12867;SDS011;33517;49.866;8.320;2022-10-16T03:57:43;1.20;;;0.50;;
12867;SDS011;33517;49.866;8.320;2022-10-16T04:00:35;0.77;;;0.50;;
12867;SDS011;33517;49.866;8.320;2022-10-16T04:03:28;0.28;;;0.28;;
12867;SDS011;33517;49.866;8.320;2022-10-16T04:06:20;0.30;;;0.30;;
12867;SDS011;33517;49.866;8.320;2022-10-16T04:09:11;0.35;;;0.28;;
12867;SDS011;33517;49.866;8.320;2022-10-16T04:12:03;0.30;;;0.30;;
12867;SDS011;33517;49.866;8.320;2022-10-16T04:14:55;0.32;;;0.32;;
12867;SDS011;33517;49.866;8.320;2022-10-16T04:17:47;0.10;;;0.10;;
12867;SDS011;33517;49.866;8.320;2022-10-16T04:20:40;0.17;;;0.15;;
12867;SDS011;33517;49.866;8.320;2022-10-16T04:23:32;0.10;;;0.10;;
12867;SDS011;33517;49.866;8.320;2022-10-16T04:26:24;0.20;;;0.20;;
12867;SDS011;33517;49.866;8.320;2022-10-16T04:29:16;0.30;;;0.30;;
12867;SDS011;33517;49.866;8.320;2022-10-16T04:32:08;0.40;;;0.40;;
12867;SDS011;33517;49.866;8.320;2022-10-16T04:35:00;0.40;;;0.40;;
12867;SDS011;33517;49.866;8.320;2022-10-16T04:37:56;0.32;;;0.32;;
12867;SDS011;33517;49.866;8.320;2022-10-16T04:40:48;0.20;;;0.20;;
12867;SDS011;33517;49.866;8.320;2022-10-16T04:43:40;0.50;;;0.50;;
12867;SDS011;33517;49.866;8.320;2022-10-16T04:46:32;0.20;;;0.20;;
12867;SDS011;33517;49.866;8.320;2022-10-16T04:49:24;0.50;;;0.50;;
12867;SDS011;33517;49.866;8.320;2022-10-16T04:52:16;0.20;;;0.20;;
12867;SDS011;33517;49.866;8.320;2022-10-16T04:55:10;6.22;;;0.40;;
12867;SDS011;33517;49.866;8.320;2022-10-16T04:58:02;0.20;;;0.20;;
12867;SDS011;33517;49.866;8.320;2022-10-16T05:00:54;1.10;;;0.90;;
12867;SDS011;33517;49.866;8.320;2022-10-16T05:03:46;0.28;;;0.28;;
12867;SDS011;33517;49.866;8.320;2022-10-16T05:06:38;0.30;;;0.30;;
12867;SDS011;33517;49.866;8.320;2022-10-16T05:09:30;0.50;;;0.50;;
12867;SDS011;33517;49.866;8.320;2022-10-16T05:12:23;0.40;;;0.40;;
12867;SDS011;33517;49.866;8.320;2022-10-16T05:15:15;0.20;;;0.17;;
12867;SDS011;33517;49.866;8.320;2022-10-16T05:18:07;3.20;;;0.60;;
12867;SDS011;33517;49.866;8.320;2022-10-16T05:20:59;0.35;;;0.35;;
12867;SDS011;33517;49.866;8.320;2022-10-16T05:23:52;0.30;;;0.20;;
12867;SDS011;33517;49.866;8.320;2022-10-16T05:26:44;0.38;;;0.38;;
12867;SDS011;33517;49.866;8.320;2022-10-16T05:29:37;0.10;;;0.10;;
12867;SDS011;33517;49.866;8.320;2022-10-16T05:32:29;0.30;;;0.30;;
12867;SDS011;33517;49.866;8.320;2022-10-16T05:35:21;0.20;;;0.20;;
12867;SDS011;33517;49.866;8.320;2022-10-16T05:38:13;0.32;;;0.32;;
12867;SDS011;33517;49.866;8.320;2022-10-16T05:41:05;0.73;;;0.73;;
12867;SDS011;33517;49.866;8.320;2022-10-16T05:43:57;2.72;;;0.43;;
12867;SDS011;33517;49.866;8.320;2022-10-16T05:46:51;0.57;;;0.57;;
12867;SDS011;33517;49.866;8.320;2022-10-16T05:49:42;0.30;;;0.30;;
12867;SDS011;33517;49.866;8.320;2022-10-16T05:52:34;0.63;;;0.63;;
12867;SDS011;33517;49.866;8.320;2022-10-16T05:55:26;0.70;;;0.28;;
12867;SDS011;33517;49.866;8.320;2022-10-16T05:58:18;11.75;;;0.38;;
12867;SDS011;33517;49.866;8.320;2022-10-16T06:01:10;0.47;;;0.45;;
12867;SDS011;33517;49.866;8.320;2022-10-16T06:04:05;0.40;;;0.40;;
12867;SDS011;33517;49.866;8.320;2022-10-16T06:06:57;3.75;;;1.08;;
12867;SDS011;33517;49.866;8.320;2022-10-16T06:09:51;0.47;;;0.47;;
12867;SDS011;33517;49.866;8.320;2022-10-16T06:12:43;0.40;;;0.40;;
12867;SDS011;33517;49.866;8.320;2022-10-16T06:15:35;0.95;;;0.77;;
12867;SDS011;33517;49.866;8.320;2022-10-16T06:18:27;0.65;;;0.63;;
12867;SDS011;33517;49.866;8.320;2022-10-16T06:21:21;15.02;;;0.90;;
12867;SDS011;33517;49.866;8.320;2022-10-16T06:24:16;0.80;;;0.80;;
12867;SDS011;33517;49.866;8.320;2022-10-16T06:27:07;0.65;;;0.63;;
12867;SDS011;33517;49.866;8.320;2022-10-16T06:29:59;0.88;;;0.80;;
12867;SDS011;33517;49.866;8.320;2022-10-16T06:32:51;0.88;;;0.88;;
12867;SDS011;33517;49.866;8.320;2022-10-16T06:35:43;0.80;;;0.80;;
12867;SDS011;33517;49.866;8.320;2022-10-16T06:38:36;1.70;;;0.95;;
12867;SDS011;33517;49.866;8.320;2022-10-16T06:41:29;0.70;;;0.70;;
12867;SDS011;33517;49.866;8.320;2022-10-16T06:44:21;3.03;;;0.80;;
12867;SDS011;33517;49.866;8.320;2022-10-16T06:47:12;0.57;;;0.57;;
12867;SDS011;33517;49.866;8.320;2022-10-16T06:50:05;0.30;;;0.30;;
12867;SDS011;33517;49.866;8.320;2022-10-16T06:52:58;0.85;;;0.68;;
12867;SDS011;33517;49.866;8.320;2022-10-16T06:55:51;0.52;;;0.52;;
12867;SDS011;33517;49.866;8.320;2022-10-16T06:58:43;1.25;;;1.15;;
12867;SDS011;33517;49.866;8.320;2022-10-16T07:01:35;0.65;;;0.65;;
12867;SDS011;33517;49.866;8.320;2022-10-16T07:04:27;0.40;;;0.40;;
12867;SDS011;33517;49.866;8.320;2022-10-16T07:07:18;0.50;;;0.50;;
12867;SDS011;33517;49.866;8.320;2022-10-16T07:10:10;0.68;;;0.68;;
12867;SDS011;33517;49.866;8.320;2022-10-16T07:13:03;0.57;;;0.55;;
12867;SDS011;33517;49.866;8.320;2022-10-16T07:15:57;0.73;;;0.73;;
12867;SDS011;33517;49.866;8.320;2022-10-16T07:18:49;0.55;;;0.55;;
12867;SDS011;33517;49.866;8.320;2022-10-16T07:21:43;1.15;;;0.85;;
12867;SDS011;33517;49.866;8.320;2022-10-16T07:24:36;4.28;;;1.42;;
12867;SDS011;33517;49.866;8.320;2022-10-16T07:27:27;0.93;;;0.60;;
12867;SDS011;33517;49.866;8.320;2022-10-16T07:30:21;7.32;;;1.77;;
12867;SDS011;33517;49.866;8.320;2022-10-16T07:33:12;0.80;;;0.80;;
12867;SDS011;33517;49.866;8.320;2022-10-16T07:36:04;0.82;;;0.63;;
12867;SDS011;33517;49.866;8.320;2022-10-16T07:38:57;0.43;;;0.43;;
12867;SDS011;33517;49.866;8.320;2022-10-16T07:41:48;0.75;;;0.75;;
12867;SDS011;33517;49.866;8.320;2022-10-16T07:44:40;1.52;;;0.82;;
12867;SDS011;33517;49.866;8.320;2022-10-16T07:47:33;0.75;;;0.65;;
12867;SDS011;33517;49.866;8.320;2022-10-16T07:50:25;5.65;;;2.03;;
12867;SDS011;33517;49.866;8.320;2022-10-16T07:53:17;0.63;;;0.52;;
12867;SDS011;33517;49.866;8.320;2022-10-16T07:56:10;0.50;;;0.50;;
12867;SDS011;33517;49.866;8.320;2022-10-16T07:59:02;3.65;;;1.27;;
12867;SDS011;33517;49.866;8.320;2022-10-16T08:01:54;3.40;;;1.40;;
12867;SDS011;33517;49.866;8.320;2022-10-16T08:04:47;5.70;;;2.15;;
12867;SDS011;33517;49.866;8.320;2022-10-16T08:07:40;3.30;;;1.85;;
12867;SDS011;33517;49.866;8.320;2022-10-16T08:10:32;2.15;;;1.73;;
12867;SDS011;33517;49.866;8.320;2022-10-16T08:13:25;1.98;;;1.60;;
12867;SDS011;33517;49.866;8.320;2022-10-16T08:16:17;1.33;;;1.13;;
12867;SDS011;33517;49.866;8.320;2022-10-16T08:19:08;1.38;;;1.30;;
12867;SDS011;33517;49.866;8.320;2022-10-16T08:22:02;2.33;;;1.52;;
12867;SDS011;33517;49.866;8.320;2022-10-16T08:24:54;0.65;;;0.65;;
12867;SDS011;33517;49.866;8.320;2022-10-16T08:27:45;1.40;;;0.98;;
12867;SDS011;33517;49.866;8.320;2022-10-16T08:30:37;1.58;;;1.05;;
12867;SDS011;33517;49.866;8.320;2022-10-16T08:33:29;3.72;;;2.45;;
12867;SDS011;33517;49.866;8.320;2022-10-16T08:36:21;7.43;;;3.05;;
12867;SDS011;33517;49.866;8.320;2022-10-16T08:39:15;3.15;;;1.70;;
12867;SDS011;33517;49.866;8.320;2022-10-16T08:42:10;0.60;;;0.60;;
12867;SDS011;33517;49.866;8.320;2022-10-16T08:45:14;0.57;;;0.57;;
12867;SDS011;33517;49.866;8.320;2022-10-16T08:48:15;1.00;;;0.95;;
12867;SDS011;33517;49.866;8.320;2022-10-16T08:51:11;1.05;;;0.95;;
12867;SDS011;33517;49.866;8.320;2022-10-16T08:54:15;3.05;;;0.85;;
12867;SDS011;33517;49.866;8.320;2022-10-16T08:57:19;1.58;;;1.48;;
12867;SDS011;33517;49.866;8.320;2022-10-16T09:00:13;0.47;;;0.47;;
12867;SDS011;33517;49.866;8.320;2022-10-16T09:03:07;0.80;;;0.80;;
12867;SDS011;33517;49.866;8.320;2022-10-16T09:06:17;0.70;;;0.60;;
12867;SDS011;33517;49.866;8.320;2022-10-16T09:09:24;0.60;;;0.60;;
12867;SDS011;33517;49.866;8.320;2022-10-16T09:12:24;0.77;;;0.77;;
12867;SDS011;33517;49.866;8.320;2022-10-16T09:15:24;1.35;;;1.08;;
12867;SDS011;33517;49.866;8.320;2022-10-16T09:18:24;2.05;;;1.88;;
12867;SDS011;33517;49.866;8.320;2022-10-16T09:21:24;1.40;;;1.30;;
12867;SDS011;33517;49.866;8.320;2022-10-16T09:24:19;1.77;;;1.38;;
12867;SDS011;33517;49.866;8.320;2022-10-16T09:27:15;1.40;;;1.30;;
12867;SDS011;33517;49.866;8.320;2022-10-16T09:30:10;2.22;;;1.33;;
12867;SDS011;33517;49.866;8.320;2022-10-16T09:33:04;4.95;;;3.25;;
12867;SDS011;33517;49.866;8.320;2022-10-16T09:35:57;0.95;;;0.95;;
12867;SDS011;33517;49.866;8.320;2022-10-16T09:38:50;0.90;;;0.90;;
12867;SDS011;33517;49.866;8.320;2022-10-16T09:41:55;1.40;;;1.30;;
12867;SDS011;33517;49.866;8.320;2022-10-16T09:44:48;0.90;;;0.90;;
12867;SDS011;33517;49.866;8.320;2022-10-16T09:47:41;1.35;;;1.25;;
12867;SDS011;33517;49.866;8.320;2022-10-16T09:50:34;0.80;;;0.80;;
12867;SDS011;33517;49.866;8.320;2022-10-16T09:53:39;3.17;;;1.42;;
12867;SDS011;33517;49.866;8.320;2022-10-16T09:56:33;0.52;;;0.52;;
12867;SDS011;33517;49.866;8.320;2022-10-16T09:59:28;1.77;;;1.33;;
12867;SDS011;33517;49.866;8.320;2022-10-16T10:02:23;1.38;;;1.23;;
12867;SDS011;33517;49.866;8.320;2022-10-16T10:05:21;8.18;;;1.20;;
12867;SDS011;33517;49.866;8.320;2022-10-16T10:08:15;1.27;;;0.95;;
12867;SDS011;33517;49.866;8.320;2022-10-16T10:11:09;0.80;;;0.80;;
12867;SDS011;33517;49.866;8.320;2022-10-16T10:14:05;1.42;;;1.10;;
12867;SDS011;33517;49.866;8.320;2022-10-16T10:17:10;3.53;;;2.78;;
12867;SDS011;33517;49.866;8.320;2022-10-16T10:20:15;2.13;;;1.88;;
12867;SDS011;33517;49.866;8.320;2022-10-16T10:23:18;3.20;;;1.00;;
12867;SDS011;33517;49.866;8.320;2022-10-16T10:26:13;3.80;;;2.10;;
12867;SDS011;33517;49.866;8.320;2022-10-16T10:29:11;2.60;;;2.38;;
12867;SDS011;33517;49.866;8.320;2022-10-16T10:32:21;6.10;;;4.03;;
12867;SDS011;33517;49.866;8.320;2022-10-16T10:35:22;0.77;;;0.77;;
12867;SDS011;33517;49.866;8.320;2022-10-16T10:38:21;2.15;;;1.10;;
12867;SDS011;33517;49.866;8.320;2022-10-16T10:41:27;1.17;;;1.10;;
12867;SDS011;33517;49.866;8.320;2022-10-16T10:44:37;0.82;;;0.82;;
12867;SDS011;33517;49.866;8.320;2022-10-16T10:47:43;2.22;;;1.30;;
12867;SDS011;33517;49.866;8.320;2022-10-16T10:50:45;1.13;;;1.00;;
12867;SDS011;33517;49.866;8.320;2022-10-16T10:53:42;1.10;;;1.00;;
12867;SDS011;33517;49.866;8.320;2022-10-16T10:56:43;1.67;;;1.58;;
12867;SDS011;33517;49.866;8.320;2022-10-16T10:59:42;19.38;;;5.75;;
12867;SDS011;33517;49.866;8.320;2022-10-16T11:02:58;4.63;;;1.40;;
12867;SDS011;33517;49.866;8.320;2022-10-16T11:06:04;2.83;;;1.83;;
12867;SDS011;33517;49.866;8.320;2022-10-16T11:09:00;0.95;;;0.95;;
12867;SDS011;33517;49.866;8.320;2022-10-16T11:12:01;1.55;;;1.45;;
12867;SDS011;33517;49.866;8.320;2022-10-16T11:15:00;1.10;;;1.08;;
12867;SDS011;33517;49.866;8.320;2022-10-16T11:17:59;2.08;;;1.70;;
12867;SDS011;33517;49.866;8.320;2022-10-16T11:20:57;1.80;;;1.33;;
12867;SDS011;33517;49.866;8.320;2022-10-16T11:23:55;5.70;;;2.75;;
12867;SDS011;33517;49.866;8.320;2022-10-16T11:26:51;2.72;;;1.60;;
12867;SDS011;33517;49.866;8.320;2022-10-16T11:29:48;1.75;;;1.10;;
12867;SDS011;33517;49.866;8.320;2022-10-16T11:32:49;0.93;;;0.93;;
12867;SDS011;33517;49.866;8.320;2022-10-16T11:35:53;4.57;;;3.47;;
12867;SDS011;33517;49.866;8.320;2022-10-16T11:38:52;1.20;;;1.10;;
12867;SDS011;33517;49.866;8.320;2022-10-16T11:41:49;0.90;;;0.90;;
12867;SDS011;33517;49.866;8.320;2022-10-16T11:44:48;1.08;;;1.08;;
12867;SDS011;33517;49.866;8.320;2022-10-16T11:47:45;1.10;;;1.10;;
12867;SDS011;33517;49.866;8.320;2022-10-16T11:50:48;1.10;;;1.05;;
12867;SDS011;33517;49.866;8.320;2022-10-16T11:53:48;2.15;;;1.48;;
12867;SDS011;33517;49.866;8.320;2022-10-16T11:56:45;1.45;;;1.35;;
12867;SDS011;33517;49.866;8.320;2022-10-16T11:59:42;3.13;;;2.08;;
12867;SDS011;33517;49.866;8.320;2022-10-16T12:02:40;7.20;;;2.88;;
12867;SDS011;33517;49.866;8.320;2022-10-16T12:05:49;2.28;;;1.98;;
12867;SDS011;33517;49.866;8.320;2022-10-16T12:08:51;1.67;;;1.58;;
12867;SDS011;33517;49.866;8.320;2022-10-16T12:11:45;8.98;;;1.20;;
12867;SDS011;33517;49.866;8.320;2022-10-16T12:14:37;2.85;;;1.48;;
12867;SDS011;33517;49.866;8.320;2022-10-16T12:17:34;1.35;;;1.25;;
12867;SDS011;33517;49.866;8.320;2022-10-16T12:20:31;1.60;;;1.20;;
12867;SDS011;33517;49.866;8.320;2022-10-16T12:23:26;6.05;;;3.70;;
12867;SDS011;33517;49.866;8.320;2022-10-16T12:26:26;1.05;;;1.00;;
12867;SDS011;33517;49.866;8.320;2022-10-16T12:29:22;3.83;;;2.53;;
12867;SDS011;33517;49.866;8.320;2022-10-16T12:32:27;1.40;;;1.30;;
12867;SDS011;33517;49.866;8.320;2022-10-16T12:35:22;2.22;;;1.25;;
12867;SDS011;33517;49.866;8.320;2022-10-16T12:38:17;0.95;;;0.95;;
12867;SDS011;33517;49.866;8.320;2022-10-16T12:41:11;0.93;;;0.63;;
12867;SDS011;33517;49.866;8.320;2022-10-16T12:47:21;5.20;;;0.90;;
12867;SDS011;33517;49.866;8.320;2022-10-16T12:50:25;1.58;;;1.15;;
12867;SDS011;33517;49.866;8.320;2022-10-16T12:53:19;0.70;;;0.70;;
12867;SDS011;33517;49.866;8.320;2022-10-16T12:56:14;7.72;;;0.98;;
12867;SDS011;33517;49.866;8.320;2022-10-16T12:59:17;3.25;;;2.75;;
12867;SDS011;33517;49.866;8.320;2022-10-16T13:02:32;2.15;;;1.52;;
12867;SDS011;33517;49.866;8.320;2022-10-16T13:05:42;1.70;;;1.20;;
12867;SDS011;33517;49.866;8.320;2022-10-16T13:08:59;3.22;;;1.60;;
12867;SDS011;33517;49.866;8.320;2022-10-16T13:12:09;1.45;;;1.20;;
12867;SDS011;33517;49.866;8.320;2022-10-16T13:15:24;1.00;;;1.00;;
12867;SDS011;33517;49.866;8.320;2022-10-16T13:18:26;2.25;;;1.70;;
12867;SDS011;33517;49.866;8.320;2022-10-16T13:21:29;3.92;;;2.28;;
12867;SDS011;33517;49.866;8.320;2022-10-16T13:24:40;1.75;;;1.30;;
12867;SDS011;33517;49.866;8.320;2022-10-16T13:27:40;4.05;;;2.80;;
12867;SDS011;33517;49.866;8.320;2022-10-16T13:30:44;3.70;;;2.42;;
12867;SDS011;33517;49.866;8.320;2022-10-16T13:33:43;1.90;;;1.52;;
12867;SDS011;33517;49.866;8.320;2022-10-16T13:36:43;2.20;;;2.00;;
12867;SDS011;33517;49.866;8.320;2022-10-16T13:39:36;1.60;;;1.02;;
12867;SDS011;33517;49.866;8.320;2022-10-16T13:42:28;3.40;;;1.63;;
12867;SDS011;33517;49.866;8.320;2022-10-16T13:45:21;1.23;;;0.95;;
12867;SDS011;33517;49.866;8.320;2022-10-16T13:48:16;1.60;;;1.50;;
12867;SDS011;33517;49.866;8.320;2022-10-16T13:51:12;1.30;;;1.05;;
12867;SDS011;33517;49.866;8.320;2022-10-16T13:54:05;4.07;;;1.58;;
12867;SDS011;33517;49.866;8.320;2022-10-16T13:57:04;2.33;;;1.10;;
12867;SDS011;33517;49.866;8.320;2022-10-16T13:59:57;1.52;;;1.40;;
12867;SDS011;33517;49.866;8.320;2022-10-16T14:02:53;1.23;;;1.08;;
12867;SDS011;33517;49.866;8.320;2022-10-16T14:05:50;1.40;;;1.10;;
12867;SDS011;33517;49.866;8.320;2022-10-16T14:08:44;2.15;;;1.40;;
12867;SDS011;33517;49.866;8.320;2022-10-16T14:11:43;0.98;;;0.98;;
12867;SDS011;33517;49.866;8.320;2022-10-16T14:14:40;1.58;;;1.42;;
12867;SDS011;33517;49.866;8.320;2022-10-16T14:17:34;1.95;;;1.13;;
12867;SDS011;33517;49.866;8.320;2022-10-16T14:20:28;1.35;;;1.25;;
12867;SDS011;33517;49.866;8.320;2022-10-16T14:23:28;3.13;;;2.80;;
12867;SDS011;33517;49.866;8.320;2022-10-16T14:26:22;1.40;;;1.30;;
12867;SDS011;33517;49.866;8.320;2022-10-16T14:29:18;1.60;;;1.25;;
12867;SDS011;33517;49.866;8.320;2022-10-16T14:32:20;1.75;;;1.45;;
12867;SDS011;33517;49.866;8.320;2022-10-16T14:35:21;1.38;;;1.27;;
12867;SDS011;33517;49.866;8.320;2022-10-16T14:38:17;1.00;;;0.95;;
12867;SDS011;33517;49.866;8.320;2022-10-16T14:41:12;1.52;;;1.38;;
12867;SDS011;33517;49.866;8.320;2022-10-16T14:44:04;2.10;;;1.58;;
12867;SDS011;33517;49.866;8.320;2022-10-16T14:46:56;4.68;;;1.52;;
12867;SDS011;33517;49.866;8.320;2022-10-16T14:49:50;2.65;;;1.63;;
12867;SDS011;33517;49.866;8.320;2022-10-16T14:52:42;1.38;;;1.23;;
12867;SDS011;33517;49.866;8.320;2022-10-16T14:55:36;2.72;;;1.30;;
12867;SDS011;33517;49.866;8.320;2022-10-16T14:58:29;1.85;;;1.23;;
12867;SDS011;33517;49.866;8.320;2022-10-16T15:01:21;2.40;;;1.70;;
12867;SDS011;33517;49.866;8.320;2022-10-16T15:04:13;2.05;;;1.40;;
12867;SDS011;33517;49.866;8.320;2022-10-16T15:07:06;1.30;;;1.20;;
12867;SDS011;33517;49.866;8.320;2022-10-16T15:09:59;1.58;;;1.40;;
12867;SDS011;33517;49.866;8.320;2022-10-16T15:12:51;2.03;;;1.70;;
12867;SDS011;33517;49.866;8.320;2022-10-16T15:15:44;3.75;;;2.30;;
12867;SDS011;33517;49.866;8.320;2022-10-16T15:18:37;4.93;;;1.00;;
12867;SDS011;33517;49.866;8.320;2022-10-16T15:21:29;2.95;;;1.38;;
12867;SDS011;33517;49.866;8.320;2022-10-16T15:24:22;1.95;;;1.75;;
12867;SDS011;33517;49.866;8.320;2022-10-16T15:27:14;1.65;;;1.55;;
12867;SDS011;33517;49.866;8.320;2022-10-16T15:30:06;0.95;;;0.93;;
12867;SDS011;33517;49.866;8.320;2022-10-16T15:33:00;3.15;;;2.38;;
12867;SDS011;33517;49.866;8.320;2022-10-16T15:35:52;1.50;;;0.88;;
12867;SDS011;33517;49.866;8.320;2022-10-16T15:38:45;2.20;;;1.70;;
12867;SDS011;33517;49.866;8.320;2022-10-16T15:41:37;2.90;;;1.90;;
12867;SDS011;33517;49.866;8.320;2022-10-16T15:44:29;5.15;;;2.65;;
12867;SDS011;33517;49.866;8.320;2022-10-16T15:47:20;11.10;;;6.38;;
12867;SDS011;33517;49.866;8.320;2022-10-16T15:50:14;2.47;;;2.28;;
12867;SDS011;33517;49.866;8.320;2022-10-16T15:53:07;6.60;;;3.20;;
12867;SDS011;33517;49.866;8.320;2022-10-16T15:56:00;5.85;;;2.95;;
12867;SDS011;33517;49.866;8.320;2022-10-16T15:58:52;6.57;;;3.40;;
12867;SDS011;33517;49.866;8.320;2022-10-16T16:01:44;15.80;;;9.95;;
12867;SDS011;33517;49.866;8.320;2022-10-16T16:04:36;20.10;;;11.18;;
12867;SDS011;33517;49.866;8.320;2022-10-16T16:07:29;7.78;;;5.97;;
12867;SDS011;33517;49.866;8.320;2022-10-16T16:10:24;6.93;;;3.65;;
12867;SDS011;33517;49.866;8.320;2022-10-16T16:13:16;5.18;;;4.20;;
12867;SDS011;33517;49.866;8.320;2022-10-16T16:16:09;15.57;;;7.40;;
12867;SDS011;33517;49.866;8.320;2022-10-16T16:19:02;2.65;;;1.90;;
12867;SDS011;33517;49.866;8.320;2022-10-16T16:21:55;8.57;;;5.40;;
12867;SDS011;33517;49.866;8.320;2022-10-16T16:24:48;12.52;;;6.85;;
12867;SDS011;33517;49.866;8.320;2022-10-16T16:27:40;11.45;;;7.05;;
12867;SDS011;33517;49.866;8.320;2022-10-16T16:30:32;18.63;;;12.25;;
12867;SDS011;33517;49.866;8.320;2022-10-16T16:33:24;11.40;;;7.18;;
12867;SDS011;33517;49.866;8.320;2022-10-16T16:36:17;9.55;;;6.75;;
12867;SDS011;33517;49.866;8.320;2022-10-16T16:39:09;4.70;;;3.72;;
12867;SDS011;33517;49.866;8.320;2022-10-16T16:42:03;17.05;;;9.70;;
12867;SDS011;33517;49.866;8.320;2022-10-16T16:44:56;26.30;;;15.10;;
12867;SDS011;33517;49.866;8.320;2022-10-16T16:47:48;8.48;;;4.93;;
12867;SDS011;33517;49.866;8.320;2022-10-16T16:50:40;11.90;;;7.47;;
12867;SDS011;33517;49.866;8.320;2022-10-16T16:53:32;3.85;;;2.45;;
12867;SDS011;33517;49.866;8.320;2022-10-16T16:56:25;10.32;;;6.90;;
12867;SDS011;33517;49.866;8.320;2022-10-16T16:59:19;22.73;;;12.93;;
12867;SDS011;33517;49.866;8.320;2022-10-16T17:02:12;19.63;;;11.43;;
12867;SDS011;33517;49.866;8.320;2022-10-16T17:05:04;22.08;;;12.63;;
12867;SDS011;33517;49.866;8.320;2022-10-16T17:07:56;12.63;;;7.70;;
12867;SDS011;33517;49.866;8.320;2022-10-16T17:10:48;13.40;;;6.88;;
12867;SDS011;33517;49.866;8.320;2022-10-16T17:13:43;32.22;;;15.07;;
12867;SDS011;33517;49.866;8.320;2022-10-16T17:16:36;12.80;;;7.95;;
12867;SDS011;33517;49.866;8.320;2022-10-16T17:19:30;16.05;;;8.50;;
12867;SDS011;33517;49.866;8.320;2022-10-16T17:22:22;32.20;;;7.60;;
12867;SDS011;33517;49.866;8.320;2022-10-16T17:25:14;2.78;;;2.28;;
12867;SDS011;33517;49.866;8.320;2022-10-16T17:28:08;10.00;;;7.45;;
12867;SDS011;33517;49.866;8.320;2022-10-16T17:31:08;13.45;;;8.10;;
12867;SDS011;33517;49.866;8.320;2022-10-16T17:34:03;5.90;;;5.20;;
12867;SDS011;33517;49.866;8.320;2022-10-16T17:36:57;3.95;;;2.75;;